Time;durP1;ratioP1;P1;durP2;ratioP2;P2;SDS_P1;SDS_P2;PMS_P1;PMS_P2;Temp;Humidity;BMP_temperature;BMP_pressure;BME280_temperature;BME280_humidity;BME280_pressure;Samples;Min_cycle;Max_cycle;Signal;HPM_P1;HPM_P2
2023/01/29 00:01:11;;;;;;;42.13;19.77;;;-3.90;99.90;;;;;;4981357;28;20026;-65
2023/01/29 00:03:37;;;;;;;39.17;18.37;;;-4.00;99.90;;;;;;4983313;28;20105;-65
2023/01/29 00:06:07;;;;;;;43.60;17.33;;;-4.00;99.90;;;;;;4986236;28;20064;-66
2023/01/29 00:08:34;;;;;;;43.17;18.37;;;-4.00;99.90;;;;;;4989677;28;20037;-66
2023/01/29 00:11:01;;;;;;;40.00;17.80;;;-4.00;99.90;;;;;;4985504;28;20038;-66
2023/01/29 00:13:27;;;;;;;39.33;16.37;;;-4.00;99.90;;;;;;4986511;28;20722;-66
2023/01/29 00:15:57;;;;;;;36.13;17.00;;;-4.10;99.90;;;;;;4989851;28;20038;-66
2023/01/29 00:18:23;;;;;;;36.67;16.67;;;-4.10;99.90;;;;;;4989364;28;20053;-66
2023/01/29 00:20:49;;;;;;;32.97;15.83;;;-4.00;99.90;;;;;;4987702;28;20026;-66
2023/01/29 00:23:15;;;;;;;36.27;15.53;;;-4.10;99.90;;;;;;4988421;28;20381;-66
2023/01/29 00:25:41;;;;;;;36.20;15.97;;;-4.00;99.90;;;;;;4985921;28;20504;-65
2023/01/29 00:28:07;;;;;;;36.50;15.73;;;-4.10;99.90;;;;;;4971297;28;20038;-65
2023/01/29 00:30:33;;;;;;;30.47;15.43;;;-4.10;99.90;;;;;;4980762;28;20045;-66
2023/01/29 00:32:58;;;;;;;30.37;14.93;;;-4.00;99.90;;;;;;4986008;28;20022;-65
2023/01/29 00:35:24;;;;;;;31.90;15.07;;;-4.10;99.90;;;;;;4981028;28;20622;-66
2023/01/29 00:37:49;;;;;;;39.37;16.40;;;-4.10;99.90;;;;;;4978088;28;20050;-65
2023/01/29 00:40:16;;;;;;;30.57;14.43;;;-4.10;99.90;;;;;;4973643;28;20026;-65
2023/01/29 00:45:45;;;;;;;28.77;14.13;;;-4.10;99.90;;;;;;4976284;28;20504;-65
2023/01/29 00:48:10;;;;;;;31.60;14.17;;;-4.10;99.90;;;;;;4977277;28;20098;-66
2023/01/29 00:50:36;;;;;;;33.87;15.90;;;-4.10;99.90;;;;;;4977195;28;20041;-67
2023/01/29 00:53:01;;;;;;;34.63;15.70;;;-4.20;99.90;;;;;;4978822;28;20468;-65
2023/01/29 00:55:27;;;;;;;33.43;14.90;;;-4.20;99.90;;;;;;4978037;28;20027;-66
2023/01/29 00:57:53;;;;;;;27.97;14.27;;;-4.20;99.90;;;;;;4976087;28;20034;-65
2023/01/29 01:00:19;;;;;;;32.50;15.33;;;-4.20;99.90;;;;;;4972707;28;20045;-66
2023/01/29 01:05:28;;;;;;;36.30;15.25;;;-4.30;99.90;;;;;;4973890;28;20088;-66
2023/01/29 01:07:56;;;;;;;33.50;14.40;;;-4.30;99.90;;;;;;4978232;28;20504;-66
2023/01/29 01:10:32;;;;;;;30.10;15.27;;;-4.30;99.90;;;;;;4980974;28;20507;-66
2023/01/29 01:13:03;;;;;;;39.13;15.63;;;-4.30;99.90;;;;;;4974426;28;20031;-66
2023/01/29 01:15:34;;;;;;;32.80;16.43;;;-4.30;99.90;;;;;;4975163;28;20618;-66
2023/01/29 01:18:01;;;;;;;38.77;17.77;;;-4.30;99.90;;;;;;4978697;28;20089;-66
2023/01/29 01:20:31;;;;;;;37.83;17.63;;;-4.30;99.90;;;;;;4975041;28;20523;-65
2023/01/29 01:22:57;;;;;;;36.30;17.13;;;-4.30;99.90;;;;;;4978705;28;20109;-66
2023/01/29 01:25:24;;;;;;;43.37;17.30;;;-4.20;99.90;;;;;;4978768;28;20394;-66
2023/01/29 01:27:54;;;;;;;39.47;17.73;;;-4.20;99.90;;;;;;4978957;28;20073;-66
2023/01/29 01:30:20;;;;;;;44.17;18.90;;;-4.30;99.90;;;;;;4957373;28;20050;-67
2023/01/29 01:32:46;;;;;;;48.50;17.47;;;-4.30;99.90;;;;;;4974297;28;20065;-66
2023/01/29 01:35:13;;;;;;;37.97;16.23;;;-4.30;99.90;;;;;;4981939;28;20096;-65
2023/01/29 01:37:39;;;;;;;38.57;17.17;;;-4.30;99.90;;;;;;4979059;28;20037;-65
2023/01/29 01:40:11;;;;;;;41.47;17.17;;;-4.30;99.90;;;;;;4976968;28;20038;-65
2023/01/29 01:42:38;;;;;;;39.07;17.33;;;-4.40;99.90;;;;;;4993265;28;20045;-65
2023/01/29 01:45:06;;;;;;;43.37;16.40;;;-4.40;99.90;;;;;;4981108;28;20113;-66
2023/01/29 01:47:46;;;;;;;36.43;16.80;;;-4.40;99.90;;;;;;4986560;28;20073;-65
2023/01/29 01:50:20;;;;;;;37.97;16.93;;;-4.40;99.90;;;;;;4985950;28;20034;-66
2023/01/29 01:52:48;;;;;;;;;;;-4.40;99.90;;;;;;4988596;28;20728;-66
2023/01/29 01:55:18;;;;;;;36.60;15.73;;;-4.40;99.90;;;;;;4980797;28;19916;-66
2023/01/29 01:57:46;;;;;;;36.70;15.47;;;-4.40;99.90;;;;;;4983748;28;20072;-67
2023/01/29 02:00:15;;;;;;;38.27;17.20;;;-4.40;99.90;;;;;;4983697;28;20026;-65
2023/01/29 02:11:27;;;;;;;32.57;15.03;;;-4.40;99.90;;;;;;4984212;28;20049;-65
2023/01/29 02:13:53;;;;;;;42.17;17.80;;;-4.40;99.90;;;;;;4998182;28;20034;-66
2023/01/29 02:16:20;;;;;;;37.30;17.27;;;-4.40;99.90;;;;;;4985008;28;20030;-65
2023/01/29 02:18:46;;;;;;;39.53;15.63;;;-4.50;99.90;;;;;;4987858;28;20503;-65
2023/01/29 02:21:39;;;;;;;42.03;17.93;;;-4.50;99.90;;;;;;4985978;28;20030;-65
2023/01/29 02:24:17;;;;;;;31.63;14.73;;;-4.50;99.90;;;;;;4985235;28;20057;-65
2023/01/29 02:27:03;;;;;;;37.57;15.50;;;-4.50;99.90;;;;;;4984839;28;20428;-66
2023/01/29 02:29:34;;;;;;;31.47;15.03;;;-4.50;99.90;;;;;;4949085;28;20097;-66
2023/01/29 02:32:21;;;;;;;37.67;15.33;;;-4.50;99.90;;;;;;4981041;28;20057;-66
2023/01/29 02:37:54;;;;;;;34.83;15.10;;;-4.50;99.90;;;;;;4987234;28;20037;-65
2023/01/29 02:40:31;;;;;;;37.23;15.57;;;-4.50;99.90;;;;;;4982239;28;20112;-66
2023/01/29 02:43:29;;;;;;;34.30;15.20;;;-4.50;99.90;;;;;;4991409;28;20472;-66
2023/01/29 02:46:17;;;;;;;36.00;15.67;;;-4.60;99.90;;;;;;4980920;28;20089;-65
2023/01/29 02:48:56;;;;;;;31.87;14.93;;;-4.60;99.90;;;;;;4981569;28;20471;-66
2023/01/29 02:51:31;;;;;;;46.33;18.47;;;-4.50;99.90;;;;;;4985674;28;20584;-66
2023/01/29 02:54:10;;;;;;;37.53;16.80;;;-4.50;99.90;;;;;;4984966;28;20026;-65
2023/01/29 02:56:56;;;;;;;41.70;16.80;;;-4.50;99.90;;;;;;4989286;28;20519;-66
2023/01/29 02:59:51;;;;;;;34.23;16.70;;;-4.50;99.90;;;;;;4989182;28;20045;-66
2023/01/29 03:02:22;;;;;;;44.43;18.30;;;-4.40;99.90;;;;;;4985513;28;20783;-65
2023/01/29 03:04:54;;;;;;;35.63;16.13;;;-4.30;99.90;;;;;;4978197;28;20026;-66
2023/01/29 03:07:41;;;;;;;36.13;17.10;;;-4.30;99.90;;;;;;4988284;28;20056;-66
2023/01/29 03:10:22;;;;;;;42.00;17.67;;;-4.30;99.90;;;;;;4979926;28;20033;-66
2023/01/29 03:13:07;;;;;;;29.30;14.60;;;-4.30;99.90;;;;;;4988013;28;20030;-66
2023/01/29 03:15:41;;;;;;;42.07;17.50;;;-4.40;99.90;;;;;;4989102;28;20038;-66
2023/01/29 03:18:11;;;;;;;41.72;16.27;;;-4.40;99.90;;;;;;4995200;28;20085;-65
2023/01/29 03:20:46;;;;;;;33.83;15.47;;;-4.50;99.90;;;;;;4986666;28;20033;-66
2023/01/29 03:23:22;;;;;;;35.07;15.97;;;-4.50;99.90;;;;;;4988991;28;20480;-66
2023/01/29 03:34:22;;;;;;;45.33;17.47;;;-4.40;99.90;;;;;;4989469;28;20041;-66
2023/01/29 03:37:06;;;;;;;34.97;16.47;;;-4.50;99.90;;;;;;4987476;28;20030;-66
2023/01/29 03:39:33;;;;;;;38.55;16.05;;;-4.50;99.90;;;;;;4985718;28;20440;-65
2023/01/29 03:42:45;;;;;;;32.50;15.40;;;-4.60;99.90;;;;;;4987961;28;20118;-66
2023/01/29 03:45:15;;;;;;;34.53;15.20;;;-4.60;99.90;;;;;;4987312;28;20042;-66
2023/01/29 03:47:49;;;;;;;39.13;17.70;;;-4.70;99.90;;;;;;4989993;28;20027;-65
2023/01/29 03:50:23;;;;;;;39.40;17.58;;;-4.70;99.90;;;;;;4981804;28;20424;-66
2023/01/29 03:53:01;;;;;;;33.55;14.98;;;-4.70;99.90;;;;;;4981787;28;20132;-65
2023/01/29 03:55:39;;;;;;;35.53;16.23;;;-4.80;99.90;;;;;;4977790;28;20496;-66
2023/01/29 03:58:22;;;;;;;31.80;15.13;;;-4.80;99.90;;;;;;4987424;28;20053;-66
2023/01/29 04:01:04;;;;;;;38.17;16.20;;;-4.80;99.90;;;;;;4980187;28;20416;-65
2023/01/29 04:03:45;;;;;;;34.00;15.80;;;-4.90;99.90;;;;;;4986412;28;20031;-65
2023/01/29 04:06:16;;;;;;;40.90;16.20;;;-4.80;99.90;;;;;;4980179;28;20055;-66
2023/01/29 04:09:07;;;;;;;38.30;14.80;;;-4.80;99.90;;;;;;4981957;28;20037;-65
2023/01/29 04:11:37;;;;;;;35.90;16.03;;;-4.90;99.90;;;;;;4969837;28;20034;-66
2023/01/29 04:14:03;;;;;;;42.67;17.97;;;-4.90;99.90;;;;;;4985908;28;20026;-65
2023/01/29 04:16:39;;;;;;;36.60;16.13;;;-4.80;99.90;;;;;;4981297;28;20365;-66
2023/01/29 04:19:05;;;;;;;34.77;16.03;;;-4.80;99.90;;;;;;4984745;28;20038;-65
2023/01/29 04:21:31;;;;;;;35.40;16.13;;;-4.80;99.90;;;;;;4988674;28;20026;-65
2023/01/29 04:23:57;;;;;;;42.37;18.13;;;-4.80;99.90;;;;;;4986131;28;20061;-65
2023/01/29 04:26:34;;;;;;;45.17;20.47;;;-4.80;99.90;;;;;;4988740;28;20059;-66
2023/01/29 04:29:19;;;;;;;40.47;16.83;;;-4.80;99.90;;;;;;4971552;28;20122;-65
2023/01/29 04:31:48;;;;;;;;;;;-4.80;99.90;;;;;;4986081;28;20113;-66
2023/01/29 04:34:41;;;;;;;42.60;17.43;;;-4.80;99.90;;;;;;4988019;28;19910;-65
2023/01/29 04:37:12;;;;;;;43.80;18.37;;;-4.80;99.90;;;;;;4978446;28;20046;-65
2023/01/29 04:39:54;;;;;;;40.23;18.27;;;-4.80;99.90;;;;;;4982327;28;20057;-66
2023/01/29 04:42:35;;;;;;;45.97;19.40;;;-4.80;99.90;;;;;;4985734;28;20058;-65
2023/01/29 04:45:26;;;;;;;35.27;17.13;;;-4.90;99.90;;;;;;4987411;28;20046;-65
2023/01/29 04:48:11;;;;;;;40.77;18.20;;;-4.90;99.90;;;;;;4987901;28;20093;-65
2023/01/29 04:50:40;;;;;;;33.47;15.88;;;-4.90;99.90;;;;;;4985608;28;20072;-65
2023/01/29 04:53:15;;;;;;;38.13;15.33;;;-4.90;99.90;;;;;;4987808;28;20523;-64
2023/01/29 04:55:57;;;;;;;37.63;15.57;;;-5.00;99.90;;;;;;4986079;28;20030;-66
2023/01/29 04:58:36;;;;;;;38.00;15.93;;;-4.90;99.90;;;;;;4984910;28;20405;-65
2023/01/29 05:01:05;;;;;;;35.57;16.00;;;-4.90;99.90;;;;;;4986139;28;20447;-66
2023/01/29 05:03:32;;;;;;;32.73;15.60;;;-5.00;99.90;;;;;;4984880;28;20653;-66
2023/01/29 05:06:00;;;;;;;38.23;15.73;;;-5.00;99.90;;;;;;4988760;28;20033;-66
2023/01/29 05:08:29;;;;;;;34.30;15.57;;;-5.00;99.90;;;;;;4980713;28;20177;-66
2023/01/29 05:10:57;;;;;;;37.47;16.17;;;-5.00;99.90;;;;;;4984983;28;20104;-66
2023/01/29 05:13:24;;;;;;;37.20;15.50;;;-5.00;99.90;;;;;;4984317;28;20400;-67
2023/01/29 05:16:03;;;;;;;40.60;17.30;;;-5.00;99.90;;;;;;4987159;28;20042;-67
2023/01/29 05:18:30;;;;;;;36.20;15.77;;;-5.00;99.90;;;;;;4980972;28;20022;-66
2023/01/29 05:20:57;;;;;;;33.60;15.57;;;-5.00;99.90;;;;;;4982575;28;20022;-66
2023/01/29 05:23:23;;;;;;;33.77;14.83;;;-5.00;99.90;;;;;;4985125;28;20034;-65
2023/01/29 05:25:50;;;;;;;33.83;17.33;;;-5.00;99.90;;;;;;4983173;28;20027;-66
2023/01/29 05:28:16;;;;;;;39.30;16.73;;;-5.00;99.90;;;;;;4983359;28;20505;-65
2023/01/29 05:30:47;;;;;;;34.90;16.13;;;-5.00;99.90;;;;;;4963176;28;20046;-65
2023/01/29 05:33:22;;;;;;;36.77;16.20;;;-5.00;99.90;;;;;;4986999;28;20042;-65
2023/01/29 05:35:48;;;;;;;32.97;15.20;;;-4.90;99.90;;;;;;4982592;28;20488;-66
2023/01/29 05:38:15;;;;;;;35.00;15.40;;;-4.90;99.90;;;;;;4980922;28;20074;-65
2023/01/29 05:40:41;;;;;;;35.03;16.23;;;-5.00;99.90;;;;;;4984117;28;20037;-67
2023/01/29 05:43:25;;;;;;;33.77;14.17;;;-5.00;99.90;;;;;;4981306;28;20026;-65
2023/01/29 05:45:56;;;;;;;37.38;16.60;;;-5.00;99.90;;;;;;4981895;28;20033;-66
2023/01/29 05:48:22;;;;;;;34.63;15.27;;;-5.00;99.90;;;;;;4985451;28;20393;-65
2023/01/29 05:50:48;;;;;;;42.20;16.43;;;-5.00;99.90;;;;;;4986127;28;20462;-65
2023/01/29 05:53:14;;;;;;;37.70;16.90;;;-4.90;99.90;;;;;;4986422;28;20110;-66
2023/01/29 05:55:44;;;;;;;41.13;17.10;;;-4.90;99.90;;;;;;4986328;28;20392;-66
2023/01/29 05:58:10;;;;;;;38.60;16.23;;;-4.90;99.90;;;;;;4988094;28;20026;-65
2023/01/29 06:00:35;;;;;;;37.13;16.27;;;-4.90;99.90;;;;;;4985325;28;20735;-66
2023/01/29 06:03:01;;;;;;;39.93;16.97;;;-4.80;99.90;;;;;;4987548;28;20026;-66
2023/01/29 06:05:27;;;;;;;35.90;17.13;;;-4.80;99.90;;;;;;4984544;28;20043;-65
2023/01/29 06:07:52;;;;;;;40.90;17.07;;;-4.80;99.90;;;;;;4986992;28;20511;-66
2023/01/29 06:10:18;;;;;;;34.60;15.83;;;-4.80;99.90;;;;;;4978801;28;20037;-66
2023/01/29 06:12:44;;;;;;;39.97;18.10;;;-4.90;99.90;;;;;;4981546;28;20035;-66
2023/01/29 06:15:11;;;;;;;43.70;17.17;;;-4.90;99.90;;;;;;4983131;28;20045;-65
2023/01/29 06:17:37;;;;;;;37.57;17.23;;;-4.90;99.90;;;;;;4981489;28;20019;-68
2023/01/29 06:20:04;;;;;;;41.73;17.20;;;-4.90;99.90;;;;;;4986661;28;20030;-68
2023/01/29 06:22:29;;;;;;;44.33;19.20;;;-4.90;99.90;;;;;;4984511;28;20041;-65
2023/01/29 06:24:55;;;;;;;43.23;18.80;;;-4.90;99.90;;;;;;4979606;28;20022;-65
2023/01/29 06:27:20;;;;;;;47.77;19.40;;;-4.90;99.90;;;;;;4986278;28;20045;-65
2023/01/29 06:29:46;;;;;;;42.87;19.00;;;-5.00;99.90;;;;;;4971026;28;20052;-65
2023/01/29 06:32:12;;;;;;;37.70;16.73;;;-5.00;99.90;;;;;;4983917;28;20165;-65
2023/01/29 06:34:37;;;;;;;47.57;19.57;;;-5.00;99.90;;;;;;4984750;28;20034;-65
2023/01/29 06:37:03;;;;;;;40.77;17.20;;;-5.00;99.90;;;;;;4987865;28;20401;-66
2023/01/29 06:39:28;;;;;;;42.17;18.30;;;-5.00;99.90;;;;;;4987244;28;20450;-65
2023/01/29 06:41:54;;;;;;;35.37;17.43;;;-5.00;99.90;;;;;;4982436;28;20484;-65
2023/01/29 06:44:20;;;;;;;43.67;18.23;;;-5.00;99.90;;;;;;4982607;28;20031;-65
2023/01/29 06:46:45;;;;;;;36.37;18.07;;;-5.00;99.90;;;;;;4986641;28;20018;-67
2023/01/29 06:49:11;;;;;;;37.43;16.47;;;-4.90;99.90;;;;;;4987186;28;20471;-65
2023/01/29 06:51:36;;;;;;;37.40;16.47;;;-4.90;99.90;;;;;;4988359;28;20033;-67
2023/01/29 06:54:02;;;;;;;37.97;16.73;;;-4.80;99.90;;;;;;4986456;28;20089;-65
2023/01/29 06:56:28;;;;;;;37.80;15.93;;;-4.80;99.90;;;;;;4991741;28;20678;-65
2023/01/29 06:58:53;;;;;;;33.17;16.40;;;-4.80;99.90;;;;;;4982438;28;20030;-65
2023/01/29 07:01:19;;;;;;;39.43;15.33;;;-4.70;99.90;;;;;;4980270;28;20074;-65
2023/01/29 07:03:48;;;;;;;39.40;16.07;;;-4.70;99.90;;;;;;4985568;28;20034;-66
2023/01/29 07:06:14;;;;;;;35.80;15.33;;;-4.50;99.90;;;;;;4985775;28;20018;-66
2023/01/29 07:08:39;;;;;;;37.67;14.57;;;-4.50;99.90;;;;;;4986931;28;20023;-65
2023/01/29 07:11:05;;;;;;;39.67;16.57;;;-4.40;99.90;;;;;;4980537;28;20046;-65
2023/01/29 07:13:31;;;;;;;43.43;18.27;;;-4.30;99.90;;;;;;4988019;28;20034;-64
2023/01/29 07:15:59;;;;;;;46.33;18.77;;;-4.30;99.90;;;;;;4980218;28;20046;-66
2023/01/29 07:18:25;;;;;;;44.57;18.47;;;-4.20;99.90;;;;;;4986727;28;20120;-65
2023/01/29 07:20:51;;;;;;;42.37;17.73;;;-4.20;99.90;;;;;;4989040;28;20034;-65
2023/01/29 07:23:16;;;;;;;44.50;17.80;;;-4.20;99.90;;;;;;4988140;28;20022;-65
2023/01/29 07:25:42;;;;;;;38.57;18.50;;;-4.10;99.90;;;;;;4990428;28;20109;-66
2023/01/29 07:28:08;;;;;;;38.97;16.97;;;-4.00;99.90;;;;;;4986041;28;20558;-65
2023/01/29 07:30:34;;;;;;;46.43;19.13;;;-4.00;99.90;;;;;;4972348;28;20038;-66
2023/01/29 07:33:04;;;;;;;35.53;16.77;;;-3.90;99.90;;;;;;4981041;28;20129;-65
2023/01/29 07:35:30;;;;;;;35.97;16.53;;;-3.90;99.90;;;;;;4988675;28;20030;-66
2023/01/29 07:37:56;;;;;;;39.50;17.87;;;-3.80;99.90;;;;;;4989866;28;20787;-66
2023/01/29 07:40:22;;;;;;;39.33;19.63;;;-3.70;99.90;;;;;;4986321;28;20110;-66
2023/01/29 07:42:47;;;;;;;41.90;19.33;;;-3.60;99.90;;;;;;4988257;28;20404;-66
2023/01/29 07:45:13;;;;;;;47.07;20.23;;;-3.60;99.90;;;;;;4984535;28;20033;-66
2023/01/29 07:47:39;;;;;;;39.07;18.67;;;-3.50;99.90;;;;;;4988457;28;20022;-67
2023/01/29 07:50:05;;;;;;;49.70;20.93;;;-3.50;99.90;;;;;;4990398;28;20034;-66
2023/01/29 07:52:32;;;;;;;36.93;17.97;;;-3.50;99.90;;;;;;4987969;28;20113;-66
2023/01/29 07:54:58;;;;;;;42.50;19.47;;;-3.40;99.90;;;;;;4986842;28;20033;-65
2023/01/29 07:57:24;;;;;;;46.50;20.57;;;-3.30;99.90;;;;;;4983594;28;20565;-66
2023/01/29 07:59:50;;;;;;;47.73;20.37;;;-3.20;99.90;;;;;;4986561;28;20492;-67
2023/01/29 08:02:15;;;;;;;42.33;19.57;;;-3.10;99.90;;;;;;4984190;28;20042;-66
2023/01/29 08:04:41;;;;;;;40.97;19.33;;;-3.00;99.90;;;;;;4984554;28;20036;-67
2023/01/29 08:07:08;;;;;;;51.97;25.57;;;-3.00;99.90;;;;;;4986358;28;20057;-66
2023/01/29 08:09:34;;;;;;;48.27;23.07;;;-2.90;99.90;;;;;;4984081;28;20503;-66
2023/01/29 08:11:59;;;;;;;47.23;21.30;;;-2.90;99.90;;;;;;4985743;28;20512;-67
2023/01/29 08:14:25;;;;;;;48.50;23.87;;;-2.80;99.90;;;;;;4984803;28;20057;-65
2023/01/29 08:16:50;;;;;;;47.70;22.53;;;-2.80;99.90;;;;;;4986371;28;20101;-64
2023/01/29 08:19:16;;;;;;;42.73;20.77;;;-2.70;99.90;;;;;;4986254;28;20500;-65
2023/01/29 08:21:42;;;;;;;42.13;19.70;;;-2.50;99.90;;;;;;4986753;28;20515;-65
2023/01/29 08:24:08;;;;;;;53.07;22.77;;;-2.50;99.90;;;;;;4986727;28;20038;-65
2023/01/29 08:26:34;;;;;;;47.03;21.67;;;-2.60;99.90;;;;;;4987392;28;20042;-65
2023/01/29 08:28:59;;;;;;;47.63;21.10;;;-2.50;99.90;;;;;;4998007;28;20404;-65
2023/01/29 08:31:25;;;;;;;52.43;20.50;;;-2.40;99.90;;;;;;4963017;28;20504;-67
2023/01/29 08:33:53;;;;;;;41.20;19.83;;;-2.30;99.90;;;;;;4983850;28;20113;-66
2023/01/29 08:36:19;;;;;;;46.30;21.27;;;-2.40;99.90;;;;;;4985897;28;20026;-67
2023/01/29 08:38:44;;;;;;;46.27;20.63;;;-2.20;99.90;;;;;;4984286;28;20088;-67
2023/01/29 08:41:10;;;;;;;48.07;22.23;;;-2.10;99.90;;;;;;4989417;28;20046;-66
2023/01/29 08:43:35;;;;;;;43.20;20.40;;;-2.00;99.90;;;;;;4985831;28;20041;-66
2023/01/29 08:46:05;;;;;;;45.50;20.37;;;-2.10;99.90;;;;;;4986525;28;20038;-66
2023/01/29 08:48:31;;;;;;;46.33;21.17;;;-1.90;99.90;;;;;;4985057;28;20416;-66
2023/01/29 08:50:58;;;;;;;42.70;21.00;;;-1.90;99.90;;;;;;4986748;28;20038;-65
2023/01/29 08:53:24;;;;;;;45.13;21.23;;;-1.80;99.90;;;;;;4988245;28;20030;-66
2023/01/29 08:55:50;;;;;;;43.73;21.50;;;-1.70;99.90;;;;;;4988766;28;20404;-66
2023/01/29 08:58:16;;;;;;;46.87;19.87;;;-1.70;99.90;;;;;;4982889;28;20026;-66
2023/01/29 09:00:41;;;;;;;37.47;19.97;;;-1.70;99.90;;;;;;4985065;28;20408;-66
2023/01/29 09:03:07;;;;;;;49.83;22.93;;;-1.70;99.90;;;;;;4986025;28;20480;-66
2023/01/29 09:05:37;;;;;;;51.00;20.67;;;-1.60;99.90;;;;;;4987012;28;20459;-66
2023/01/29 09:08:04;;;;;;;52.10;23.33;;;-1.70;99.90;;;;;;4985787;28;20030;-66
2023/01/29 09:10:29;;;;;;;41.60;20.80;;;-1.60;99.90;;;;;;4982285;28;20440;-66
2023/01/29 09:12:55;;;;;;;40.70;20.58;;;-1.50;99.90;;;;;;4987003;28;20027;-65
2023/01/29 09:15:21;;;;;;;47.97;20.98;;;-1.50;99.90;;;;;;4987514;28;20519;-65
2023/01/29 09:17:48;;;;;;;42.80;20.45;;;-1.30;99.90;;;;;;4986583;28;20045;-66
2023/01/29 09:20:14;;;;;;;47.00;20.27;;;-1.10;99.90;;;;;;4984621;28;20652;-66
2023/01/29 09:22:40;;;;;;;46.78;21.23;;;-1.00;99.90;;;;;;4989491;28;20022;-67
2023/01/29 09:25:06;;;;;;;45.65;23.15;;;-1.10;99.90;;;;;;4983791;28;20034;-67
2023/01/29 09:27:32;;;;;;;44.50;22.05;;;-1.10;99.90;;;;;;4981690;28;20546;-67
2023/01/29 09:29:58;;;;;;;51.17;22.55;;;-1.20;99.90;;;;;;4961057;28;20063;-65
2023/01/29 09:32:23;;;;;;;48.87;22.47;;;-1.20;99.90;;;;;;4987763;28;20034;-66
2023/01/29 09:34:49;;;;;;;50.28;23.13;;;-1.30;99.90;;;;;;4985486;28;20033;-66
2023/01/29 09:37:16;;;;;;;43.80;20.73;;;-1.30;99.90;;;;;;4983095;28;20038;-66
2023/01/29 09:39:42;;;;;;;51.95;23.10;;;-1.20;99.90;;;;;;4984773;28;20571;-66
2023/01/29 09:42:42;;;;;;;50.65;23.25;;;-1.10;99.90;;;;;;4987864;28;20503;-66
2023/01/29 09:45:13;;;;;;;51.97;21.70;;;-1.10;99.90;;;;;;4980353;28;20038;-65
2023/01/29 09:47:39;;;;;;;48.17;22.83;;;-1.00;99.90;;;;;;4982981;28;20085;-65
2023/01/29 09:50:15;;;;;;;56.05;23.65;;;-0.80;99.90;;;;;;4977850;28;20038;-65
2023/01/29 09:53:00;;;;;;;55.85;23.17;;;-0.80;99.90;;;;;;4977463;28;20126;-66
2023/01/29 09:55:30;;;;;;;59.00;23.75;;;-0.80;99.90;;;;;;4982122;28;20030;-66
2023/01/29 09:58:02;;;;;;;58.50;24.52;;;-0.80;99.90;;;;;;4976728;28;20737;-66
2023/01/29 10:01:00;;;;;;;49.85;24.08;;;-0.70;99.90;;;;;;4979350;28;20285;-66
2023/01/29 10:03:34;;;;;;;73.50;29.48;;;-0.60;99.90;;;;;;4989293;28;20108;-67
2023/01/29 10:06:06;;;;;;;;;;;-0.50;99.90;;;;;;5008218;28;20054;-66
2023/01/29 10:09:05;;;;;;;63.25;27.45;;;-0.50;99.90;;;;;;4980935;28;19918;-66
2023/01/29 10:12:03;;;;;;;62.28;28.77;;;-0.40;99.90;;;;;;4979870;28;20614;-64
2023/01/29 10:14:41;;;;;;;55.65;26.23;;;-0.30;99.90;;;;;;4986863;28;20093;-67
2023/01/29 10:17:37;;;;;;;50.85;23.65;;;-0.40;99.90;;;;;;4982091;28;21574;-66
2023/01/29 10:20:12;;;;;;;46.28;21.58;;;-0.30;99.90;;;;;;4983507;28;20030;-65
2023/01/29 10:22:55;;;;;;;47.42;23.08;;;-0.20;99.90;;;;;;4985343;28;20110;-66
2023/01/29 10:25:22;;;;;;;44.42;21.65;;;0.00;99.90;;;;;;4983906;28;20496;-66
2023/01/29 10:27:51;;;;;;;43.47;22.05;;;0.30;99.90;;;;;;4989599;28;20119;-66
2023/01/29 10:30:45;;;;;;;41.75;22.17;;;0.50;99.90;;;;;;4971731;28;20045;-66
2023/01/29 10:33:35;;;;;;;45.53;22.85;;;0.50;99.90;;;;;;4982321;28;20642;-66
2023/01/29 10:36:05;;;;;;;46.55;24.60;;;0.60;99.90;;;;;;4990691;28;20023;-66
2023/01/29 10:38:41;;;;;;;47.78;21.30;;;0.70;99.90;;;;;;4986788;28;20026;-67
2023/01/29 10:41:10;;;;;;;42.75;20.88;;;0.80;99.90;;;;;;4991163;28;20037;-66
2023/01/29 10:43:47;;;;;;;51.88;21.65;;;0.70;99.90;;;;;;4989408;28;20072;-66
2023/01/29 10:46:42;;;;;;;45.20;22.52;;;0.80;99.90;;;;;;4988891;28;20022;-66
2023/01/29 10:49:44;;;;;;;51.63;23.40;;;0.80;99.90;;;;;;4988094;28;20075;-66
2023/01/29 10:52:26;;;;;;;59.65;26.15;;;0.90;99.90;;;;;;4991447;28;20026;-67
2023/01/29 10:55:11;;;;;;;50.22;23.83;;;0.90;99.90;;;;;;5003054;28;20031;-65
2023/01/29 10:57:51;;;;;;;52.22;25.05;;;1.10;99.90;;;;;;4990945;28;20029;-66
2023/01/29 11:00:20;;;;;;;57.70;26.23;;;1.00;99.90;;;;;;4984164;28;20113;-66
2023/01/29 11:02:48;;;;;;;45.15;23.02;;;0.80;99.90;;;;;;4981130;28;20026;-64
2023/01/29 11:05:36;;;;;;;44.92;22.35;;;0.70;99.90;;;;;;4986560;28;20494;-66
2023/01/29 11:08:11;;;;;;;51.03;23.73;;;0.60;99.90;;;;;;4982062;28;20034;-67
2023/01/29 11:10:42;;;;;;;55.75;23.90;;;0.60;99.90;;;;;;4985207;28;20531;-66
2023/01/29 11:13:12;;;;;;;45.22;21.50;;;0.60;99.90;;;;;;4986214;28;20118;-65
2023/01/29 11:15:38;;;;;;;48.10;20.88;;;0.60;99.90;;;;;;4982534;28;20112;-66
2023/01/29 11:18:14;;;;;;;47.10;22.45;;;0.60;99.90;;;;;;4984318;28;20124;-65
2023/01/29 11:20:42;;;;;;;44.67;21.27;;;0.50;99.90;;;;;;4985788;28;20033;-66
2023/01/29 11:23:31;;;;;;;45.08;20.67;;;0.60;99.90;;;;;;4984837;28;20342;-65
2023/01/29 11:25:58;;;;;;;50.22;22.45;;;0.60;99.90;;;;;;4981336;28;20388;-66
2023/01/29 11:28:40;;;;;;;55.67;24.38;;;0.70;99.90;;;;;;4985738;28;20511;-65
2023/01/29 11:31:25;;;;;;;43.33;21.33;;;0.80;99.90;;;;;;4967055;28;20057;-66
2023/01/29 11:33:59;;;;;;;88.53;34.95;;;0.90;99.90;;;;;;4984155;28;20041;-66
2023/01/29 11:36:43;;;;;;;53.50;23.70;;;0.80;99.90;;;;;;4981469;28;20030;-66
2023/01/29 11:39:20;;;;;;;49.17;22.73;;;0.80;99.90;;;;;;4988046;28;20464;-67
2023/01/29 11:41:54;;;;;;;62.63;27.58;;;0.80;99.90;;;;;;4987085;28;20050;-66
2023/01/29 11:44:41;;;;;;;66.63;28.30;;;0.90;99.90;;;;;;4984187;28;20396;-66
2023/01/29 11:47:24;;;;;;;52.40;22.35;;;0.90;99.90;;;;;;4978088;28;20058;-65
2023/01/29 11:49:55;;;;;;;74.70;29.88;;;0.90;99.90;;;;;;4981411;28;20031;-67
2023/01/29 11:52:24;;;;;;;50.63;21.98;;;0.90;99.90;;;;;;4987544;28;20045;-66
2023/01/29 11:54:59;;;;;;;68.82;28.25;;;1.00;99.90;;;;;;4988497;28;20015;-66
2023/01/29 11:57:36;;;;;;;47.22;22.45;;;1.10;99.90;;;;;;4989335;28;20023;-65
2023/01/29 12:00:16;;;;;;;44.40;20.00;;;1.10;99.90;;;;;;4979073;28;20037;-66
2023/01/29 12:02:45;;;;;;;59.30;25.63;;;1.20;99.90;;;;;;4981470;28;20106;-66
2023/01/29 12:05:19;;;;;;;51.08;24.52;;;1.10;99.90;;;;;;4989135;28;20965;-66
2023/01/29 12:07:49;;;;;;;;;;;1.20;99.90;;;;;;4984980;28;20031;-66
2023/01/29 12:10:35;;;;;;;45.92;20.42;;;1.20;99.90;;;;;;4981666;28;19917;-66
2023/01/29 12:13:08;;;;;;;49.38;24.50;;;1.30;99.90;;;;;;4987939;28;20069;-66
2023/01/29 12:15:34;;;;;;;45.00;20.80;;;1.50;99.90;;;;;;4981229;28;20030;-66
2023/01/29 12:18:03;;;;;;;41.88;20.05;;;1.60;99.90;;;;;;4982643;28;20038;-66
2023/01/29 12:20:47;;;;;;;43.55;22.02;;;1.70;99.90;;;;;;4996077;28;20065;-66
2023/01/29 12:23:27;;;;;;;37.15;17.85;;;1.70;99.90;;;;;;4990320;28;20022;-65
2023/01/29 12:26:07;;;;;;;42.35;19.23;;;1.80;99.90;;;;;;4980987;28;20030;-66
2023/01/29 12:28:38;;;;;;;69.28;29.38;;;1.80;99.90;;;;;;4988525;28;20053;-66
2023/01/29 12:31:10;;;;;;;61.33;26.17;;;1.70;99.90;;;;;;4960994;28;20505;-66
2023/01/29 12:33:38;;;;;;;46.42;22.23;;;1.60;99.90;;;;;;4969064;28;20049;-66
2023/01/29 12:36:23;;;;;;;41.88;19.85;;;1.60;99.90;;;;;;4985670;28;20097;-67
2023/01/29 12:38:49;;;;;;;39.53;18.52;;;1.70;99.90;;;;;;4977623;28;20432;-66
2023/01/29 12:41:46;;;;;;;41.15;22.42;;;1.80;99.90;;;;;;4990727;28;20077;-66
2023/01/29 12:44:43;;;;;;;37.08;19.63;;;1.80;99.90;;;;;;4961157;28;20034;-66
2023/01/29 12:47:35;;;;;;;42.85;21.08;;;1.70;99.90;;;;;;5004104;28;20040;-67
2023/01/29 12:50:25;;;;;;;41.15;19.98;;;1.70;99.90;;;;;;4999435;28;20053;-65
2023/01/29 12:52:56;;;;;;;44.90;21.45;;;1.60;99.90;;;;;;5003727;28;20025;-66
2023/01/29 12:55:40;;;;;;;35.85;17.30;;;1.70;99.90;;;;;;5008999;28;20520;-66
2023/01/29 12:58:14;;;;;;;45.70;20.63;;;1.80;99.90;;;;;;5003039;28;20029;-66
2023/01/29 13:00:44;;;;;;;50.40;23.13;;;1.80;99.90;;;;;;5004431;28;20534;-66
2023/01/29 13:03:17;;;;;;;36.67;18.13;;;1.80;99.90;;;;;;4999044;28;20041;-66
2023/01/29 13:06:09;;;;;;;40.10;18.83;;;2.00;99.90;;;;;;5004455;28;20022;-66
2023/01/29 13:08:48;;;;;;;55.72;23.38;;;2.00;99.90;;;;;;5002228;28;20399;-66
2023/01/29 13:11:37;;;;;;;57.72;26.23;;;2.00;99.90;;;;;;5000762;28;20476;-67
2023/01/29 13:14:20;;;;;;;39.17;19.10;;;2.00;99.90;;;;;;5005884;28;20052;-68
2023/01/29 13:16:51;;;;;;;58.92;24.55;;;2.20;99.90;;;;;;5005039;28;20445;-66
2023/01/29 13:19:30;;;;;;;43.60;19.90;;;2.30;99.90;;;;;;5002629;28;20052;-66
2023/01/29 13:22:00;;;;;;;36.58;18.00;;;2.20;99.90;;;;;;5008385;28;20029;-66